sensor_id;sensor_type;location;lat;lon;timestamp;temperature;humidity
8226;DHT22;4154;48.810;9.012;2023-03-21T00:01:11;10.50;95.40
8226;DHT22;4154;48.810;9.012;2023-03-21T00:03:38;10.90;99.90
8226;DHT22;4154;48.810;9.012;2023-03-21T00:06:09;10.50;95.20
8226;DHT22;4154;48.810;9.012;2023-03-21T00:08:38;10.50;95.30
8226;DHT22;4154;48.810;9.012;2023-03-21T00:11:07;10.40;95.20
8226;DHT22;4154;48.810;9.012;2023-03-21T00:13:34;10.50;95.20
8226;DHT22;4154;48.810;9.012;2023-03-21T00:16:14;10.50;95.20
8226;DHT22;4154;48.810;9.012;2023-03-21T00:18:52;10.50;95.40
8226;DHT22;4154;48.810;9.012;2023-03-21T00:21:20;10.40;95.10
8226;DHT22;4154;48.810;9.012;2023-03-21T00:23:53;10.40;95.30
8226;DHT22;4154;48.810;9.012;2023-03-21T00:36:07;10.40;95.10
8226;DHT22;4154;48.810;9.012;2023-03-21T00:38:35;10.40;95.20
8226;DHT22;4154;48.810;9.012;2023-03-21T00:41:05;10.40;95.20
8226;DHT22;4154;48.810;9.012;2023-03-21T00:45:59;10.40;95.00
8226;DHT22;4154;48.810;9.012;2023-03-21T00:48:26;10.40;95.30
8226;DHT22;4154;48.810;9.012;2023-03-21T00:50:53;10.40;95.20
8226;DHT22;4154;48.810;9.012;2023-03-21T00:53:21;10.30;95.20
8226;DHT22;4154;48.810;9.012;2023-03-21T00:55:48;10.40;95.30
8226;DHT22;4154;48.810;9.012;2023-03-21T00:58:15;10.40;95.40
8226;DHT22;4154;48.810;9.012;2023-03-21T01:00:41;10.40;95.40
8226;DHT22;4154;48.810;9.012;2023-03-21T01:03:10;10.40;95.50
8226;DHT22;4154;48.810;9.012;2023-03-21T01:05:40;10.60;95.70
8226;DHT22;4154;48.810;9.012;2023-03-21T01:13:22;10.50;99.90
8226;DHT22;4154;48.810;9.012;2023-03-21T01:15:54;10.30;95.70
8226;DHT22;4154;48.810;9.012;2023-03-21T01:18:23;10.30;95.60
8226;DHT22;4154;48.810;9.012;2023-03-21T01:20:52;10.30;95.80
8226;DHT22;4154;48.810;9.012;2023-03-21T01:25:47;10.20;95.60
8226;DHT22;4154;48.810;9.012;2023-03-21T01:28:13;10.10;99.90
8226;DHT22;4154;48.810;9.012;2023-03-21T01:30:44;10.20;95.90
8226;DHT22;4154;48.810;9.012;2023-03-21T01:33:14;10.20;95.90
8226;DHT22;4154;48.810;9.012;2023-03-21T01:35:41;10.30;96.00
8226;DHT22;4154;48.810;9.012;2023-03-21T01:38:08;10.10;95.90
8226;DHT22;4154;48.810;9.012;2023-03-21T01:40:35;10.20;99.90
8226;DHT22;4154;48.810;9.012;2023-03-21T01:43:01;10.10;96.30
8226;DHT22;4154;48.810;9.012;2023-03-21T01:46:07;10.00;96.40
8226;DHT22;4154;48.810;9.012;2023-03-21T01:48:38;10.00;96.20
8226;DHT22;4154;48.810;9.012;2023-03-21T01:51:07;10.00;96.40
8226;DHT22;4154;48.810;9.012;2023-03-21T01:53:37;10.00;96.40
8226;DHT22;4154;48.810;9.012;2023-03-21T01:56:10;10.00;96.30
8226;DHT22;4154;48.810;9.012;2023-03-21T01:58:41;10.00;96.30
8226;DHT22;4154;48.810;9.012;2023-03-21T02:01:08;10.10;96.30
8226;DHT22;4154;48.810;9.012;2023-03-21T02:03:34;10.10;96.30
8226;DHT22;4154;48.810;9.012;2023-03-21T02:06:10;10.10;96.20
8226;DHT22;4154;48.810;9.012;2023-03-21T02:08:39;10.00;96.20
8226;DHT22;4154;48.810;9.012;2023-03-21T02:11:06;10.00;96.20
8226;DHT22;4154;48.810;9.012;2023-03-21T02:13:34;10.10;96.20
8226;DHT22;4154;48.810;9.012;2023-03-21T02:28:27;10.00;96.10
8226;DHT22;4154;48.810;9.012;2023-03-21T02:37:06;10.00;96.30
8226;DHT22;4154;48.810;9.012;2023-03-21T02:40:02;10.00;96.30
8226;DHT22;4154;48.810;9.012;2023-03-21T02:45:29;10.00;96.30
8226;DHT22;4154;48.810;9.012;2023-03-21T02:48:18;10.00;96.60
8226;DHT22;4154;48.810;9.012;2023-03-21T02:50:58;9.90;97.50
8226;DHT22;4154;48.810;9.012;2023-03-21T02:53:30;9.90;97.30
8226;DHT22;4154;48.810;9.012;2023-03-21T02:55:59;9.80;97.20
8226;DHT22;4154;48.810;9.012;2023-03-21T02:58:27;9.80;97.40
8226;DHT22;4154;48.810;9.012;2023-03-21T03:00:56;9.80;97.50
8226;DHT22;4154;48.810;9.012;2023-03-21T03:05:52;9.80;97.30
8226;DHT22;4154;48.810;9.012;2023-03-21T03:11:27;9.80;97.50
8226;DHT22;4154;48.810;9.012;2023-03-21T03:20:12;9.70;97.60
8226;DHT22;4154;48.810;9.012;2023-03-21T03:23:27;9.80;97.70
8226;DHT22;4154;48.810;9.012;2023-03-21T03:26:07;9.70;97.70
8226;DHT22;4154;48.810;9.012;2023-03-21T03:28:45;9.70;97.70
8226;DHT22;4154;48.810;9.012;2023-03-21T03:31:20;9.70;97.60
8226;DHT22;4154;48.810;9.012;2023-03-21T03:33:54;9.60;97.60
8226;DHT22;4154;48.810;9.012;2023-03-21T03:36:28;9.60;97.70
8226;DHT22;4154;48.810;9.012;2023-03-21T03:39:02;9.60;97.90
8226;DHT22;4154;48.810;9.012;2023-03-21T03:41:30;9.60;97.90
8226;DHT22;4154;48.810;9.012;2023-03-21T03:46:31;9.60;97.70
8226;DHT22;4154;48.810;9.012;2023-03-21T03:49:16;9.60;97.90
8226;DHT22;4154;48.810;9.012;2023-03-21T03:54:29;9.50;98.00
8226;DHT22;4154;48.810;9.012;2023-03-21T03:59:26;9.50;97.80
8226;DHT22;4154;48.810;9.012;2023-03-21T04:01:51;9.50;97.90
8226;DHT22;4154;48.810;9.012;2023-03-21T04:04:17;9.60;99.90
8226;DHT22;4154;48.810;9.012;2023-03-21T04:06:43;9.40;97.70
8226;DHT22;4154;48.810;9.012;2023-03-21T04:09:16;9.40;97.90
8226;DHT22;4154;48.810;9.012;2023-03-21T04:11:42;9.40;97.80
8226;DHT22;4154;48.810;9.012;2023-03-21T04:16:34;9.40;97.60
8226;DHT22;4154;48.810;9.012;2023-03-21T04:21:26;9.30;97.60
8226;DHT22;4154;48.810;9.012;2023-03-21T04:23:53;9.30;97.80
8226;DHT22;4154;48.810;9.012;2023-03-21T04:26:20;9.30;97.90
8226;DHT22;4154;48.810;9.012;2023-03-21T04:28:47;9.20;97.90
8226;DHT22;4154;48.810;9.012;2023-03-21T04:31:13;9.20;97.90
8226;DHT22;4154;48.810;9.012;2023-03-21T04:36:09;9.10;97.70
8226;DHT22;4154;48.810;9.012;2023-03-21T04:38:51;9.10;97.90
8226;DHT22;4154;48.810;9.012;2023-03-21T04:41:18;8.90;99.90
8226;DHT22;4154;48.810;9.012;2023-03-21T04:46:11;9.00;97.70
8226;DHT22;4154;48.810;9.012;2023-03-21T04:48:37;9.00;97.90
8226;DHT22;4154;48.810;9.012;2023-03-21T04:51:03;9.00;98.00
8226;DHT22;4154;48.810;9.012;2023-03-21T04:53:29;8.90;98.00
8226;DHT22;4154;48.810;9.012;2023-03-21T04:55:54;8.90;98.10
8226;DHT22;4154;48.810;9.012;2023-03-21T04:58:21;8.90;98.20
8226;DHT22;4154;48.810;9.012;2023-03-21T05:00:48;8.90;98.20
8226;DHT22;4154;48.810;9.012;2023-03-21T05:03:17;8.80;98.20
8226;DHT22;4154;48.810;9.012;2023-03-21T05:08:13;8.80;98.20
8226;DHT22;4154;48.810;9.012;2023-03-21T05:10:39;8.80;98.40
8226;DHT22;4154;48.810;9.012;2023-03-21T05:13:04;8.70;99.90
8226;DHT22;4154;48.810;9.012;2023-03-21T05:15:30;8.70;98.40
8226;DHT22;4154;48.810;9.012;2023-03-21T05:17:56;8.80;99.90
8226;DHT22;4154;48.810;9.012;2023-03-21T05:20:39;8.60;98.40
8226;DHT22;4154;48.810;9.012;2023-03-21T05:23:11;8.60;98.40
8226;DHT22;4154;48.810;9.012;2023-03-21T05:25:38;8.60;98.30
8226;DHT22;4154;48.810;9.012;2023-03-21T05:28:05;8.50;98.20
8226;DHT22;4154;48.810;9.012;2023-03-21T05:30:32;8.50;98.30
8226;DHT22;4154;48.810;9.012;2023-03-21T05:32:58;8.50;98.30
8226;DHT22;4154;48.810;9.012;2023-03-21T05:37:51;8.40;98.20
8226;DHT22;4154;48.810;9.012;2023-03-21T05:42:45;8.30;98.30
8226;DHT22;4154;48.810;9.012;2023-03-21T05:45:12;8.30;98.50
8226;DHT22;4154;48.810;9.012;2023-03-21T05:50:05;8.30;98.30
8226;DHT22;4154;48.810;9.012;2023-03-21T05:54:57;8.30;98.30
8226;DHT22;4154;48.810;9.012;2023-03-21T05:57:23;8.30;98.50
8226;DHT22;4154;48.810;9.012;2023-03-21T05:59:52;8.20;98.40
8226;DHT22;4154;48.810;9.012;2023-03-21T06:02:17;8.30;98.30
8226;DHT22;4154;48.810;9.012;2023-03-21T06:07:10;8.10;99.90
8226;DHT22;4154;48.810;9.012;2023-03-21T06:09:35;8.30;98.20
8226;DHT22;4154;48.810;9.012;2023-03-21T06:12:01;8.20;98.20
8226;DHT22;4154;48.810;9.012;2023-03-21T06:14:27;8.20;98.30
8226;DHT22;4154;48.810;9.012;2023-03-21T06:16:53;8.20;98.30
8226;DHT22;4154;48.810;9.012;2023-03-21T06:19:19;8.20;98.30
8226;DHT22;4154;48.810;9.012;2023-03-21T06:21:46;8.20;98.30
8226;DHT22;4154;48.810;9.012;2023-03-21T06:24:12;8.10;98.30
8226;DHT22;4154;48.810;9.012;2023-03-21T06:26:39;8.10;98.30
8226;DHT22;4154;48.810;9.012;2023-03-21T06:29:06;8.10;98.30
8226;DHT22;4154;48.810;9.012;2023-03-21T06:31:32;8.10;98.30
8226;DHT22;4154;48.810;9.012;2023-03-21T06:33:58;8.10;98.30
8226;DHT22;4154;48.810;9.012;2023-03-21T06:38:49;8.20;98.10
8226;DHT22;4154;48.810;9.012;2023-03-21T06:41:17;8.30;98.00
8226;DHT22;4154;48.810;9.012;2023-03-21T06:43:43;8.30;98.00
8226;DHT22;4154;48.810;9.012;2023-03-21T06:46:09;8.30;98.20
8226;DHT22;4154;48.810;9.012;2023-03-21T06:53:29;8.40;98.10
8226;DHT22;4154;48.810;9.012;2023-03-21T06:55:57;8.50;98.20
8226;DHT22;4154;48.810;9.012;2023-03-21T07:00:49;8.60;98.00
8226;DHT22;4154;48.810;9.012;2023-03-21T07:05:41;8.70;98.20
8226;DHT22;4154;48.810;9.012;2023-03-21T07:08:08;8.80;98.40
8226;DHT22;4154;48.810;9.012;2023-03-21T07:10:40;8.90;98.40
8226;DHT22;4154;48.810;9.012;2023-03-21T07:13:07;8.90;98.00
8226;DHT22;4154;48.810;9.012;2023-03-21T07:18:06;9.00;97.90
8226;DHT22;4154;48.810;9.012;2023-03-21T07:20:34;9.10;98.00
8226;DHT22;4154;48.810;9.012;2023-03-21T07:23:02;9.10;97.80
8226;DHT22;4154;48.810;9.012;2023-03-21T07:25:28;9.20;97.70
8226;DHT22;4154;48.810;9.012;2023-03-21T07:27:54;9.20;97.70
8226;DHT22;4154;48.810;9.012;2023-03-21T07:32:46;9.30;97.10
8226;DHT22;4154;48.810;9.012;2023-03-21T07:35:17;9.40;97.10
8226;DHT22;4154;48.810;9.012;2023-03-21T07:37:43;9.40;96.90
8226;DHT22;4154;48.810;9.012;2023-03-21T07:40:10;9.40;96.80
8226;DHT22;4154;48.810;9.012;2023-03-21T07:42:38;9.60;96.50
8226;DHT22;4154;48.810;9.012;2023-03-21T07:45:06;9.60;96.80
8226;DHT22;4154;48.810;9.012;2023-03-21T07:47:32;9.60;96.70
8226;DHT22;4154;48.810;9.012;2023-03-21T07:49:58;9.90;99.90
8226;DHT22;4154;48.810;9.012;2023-03-21T07:52:25;9.70;96.80
8226;DHT22;4154;48.810;9.012;2023-03-21T07:57:17;9.80;99.90
8226;DHT22;4154;48.810;9.012;2023-03-21T07:59:43;9.90;96.30
8226;DHT22;4154;48.810;9.012;2023-03-21T08:02:16;10.10;95.80
8226;DHT22;4154;48.810;9.012;2023-03-21T08:04:43;10.10;95.80
8226;DHT22;4154;48.810;9.012;2023-03-21T08:07:09;10.10;99.90
8226;DHT22;4154;48.810;9.012;2023-03-21T08:09:36;10.30;95.80
8226;DHT22;4154;48.810;9.012;2023-03-21T08:12:03;10.40;95.80
8226;DHT22;4154;48.810;9.012;2023-03-21T08:14:30;10.40;95.60
8226;DHT22;4154;48.810;9.012;2023-03-21T08:24:16;10.70;94.10
8226;DHT22;4154;48.810;9.012;2023-03-21T08:26:41;10.80;94.40
8226;DHT22;4154;48.810;9.012;2023-03-21T08:29:08;11.20;99.50
8226;DHT22;4154;48.810;9.012;2023-03-21T08:31:34;10.90;94.10
8226;DHT22;4154;48.810;9.012;2023-03-21T08:34:00;11.00;94.00
8226;DHT22;4154;48.810;9.012;2023-03-21T08:36:25;11.00;94.00
8226;DHT22;4154;48.810;9.012;2023-03-21T08:38:51;11.20;93.70
8226;DHT22;4154;48.810;9.012;2023-03-21T08:41:21;11.20;92.60
8226;DHT22;4154;48.810;9.012;2023-03-21T08:43:50;11.30;92.80
8226;DHT22;4154;48.810;9.012;2023-03-21T08:46:15;11.40;93.10
8226;DHT22;4154;48.810;9.012;2023-03-21T08:48:41;11.50;92.30
8226;DHT22;4154;48.810;9.012;2023-03-21T08:51:07;11.50;91.60
8226;DHT22;4154;48.810;9.012;2023-03-21T08:53:33;11.50;91.50
8226;DHT22;4154;48.810;9.012;2023-03-21T08:55:58;11.70;91.80
8226;DHT22;4154;48.810;9.012;2023-03-21T08:58:24;11.70;91.50
8226;DHT22;4154;48.810;9.012;2023-03-21T09:00:50;11.80;91.40
8226;DHT22;4154;48.810;9.012;2023-03-21T09:03:16;11.90;91.00
8226;DHT22;4154;48.810;9.012;2023-03-21T09:05:42;12.00;90.50
8226;DHT22;4154;48.810;9.012;2023-03-21T09:08:10;12.00;89.50
8226;DHT22;4154;48.810;9.012;2023-03-21T09:10:37;12.10;88.90
8226;DHT22;4154;48.810;9.012;2023-03-21T09:13:03;12.10;89.00
8226;DHT22;4154;48.810;9.012;2023-03-21T09:15:29;12.10;88.20
8226;DHT22;4154;48.810;9.012;2023-03-21T09:17:55;12.30;94.20
8226;DHT22;4154;48.810;9.012;2023-03-21T09:20:25;12.30;87.70
8226;DHT22;4154;48.810;9.012;2023-03-21T09:22:55;12.30;85.60
8226;DHT22;4154;48.810;9.012;2023-03-21T09:25:22;12.50;83.50
8226;DHT22;4154;48.810;9.012;2023-03-21T09:27:49;12.60;83.20
8226;DHT22;4154;48.810;9.012;2023-03-21T09:30:17;12.70;83.80
8226;DHT22;4154;48.810;9.012;2023-03-21T09:32:45;12.80;84.60
8226;DHT22;4154;48.810;9.012;2023-03-21T09:35:13;13.00;84.40
8226;DHT22;4154;48.810;9.012;2023-03-21T09:37:40;13.00;84.40
8226;DHT22;4154;48.810;9.012;2023-03-21T09:49:24;13.50;86.00
8226;DHT22;4154;48.810;9.012;2023-03-21T09:51:58;13.60;85.70
8226;DHT22;4154;48.810;9.012;2023-03-21T09:54:31;13.50;92.30
8226;DHT22;4154;48.810;9.012;2023-03-21T09:57:09;10.80;91.50
8226;DHT22;4154;48.810;9.012;2023-03-21T09:59:49;13.70;85.30
8226;DHT22;4154;48.810;9.012;2023-03-21T10:02:38;13.70;86.00
8226;DHT22;4154;48.810;9.012;2023-03-21T10:05:23;13.90;85.30
8226;DHT22;4154;48.810;9.012;2023-03-21T10:08:07;14.00;85.40
8226;DHT22;4154;48.810;9.012;2023-03-21T10:10:46;14.20;84.00
8226;DHT22;4154;48.810;9.012;2023-03-21T10:13:20;14.20;83.50
8226;DHT22;4154;48.810;9.012;2023-03-21T10:15:50;14.30;84.00
8226;DHT22;4154;48.810;9.012;2023-03-21T10:18:23;14.30;83.90
8226;DHT22;4154;48.810;9.012;2023-03-21T10:20:52;14.40;84.20
8226;DHT22;4154;48.810;9.012;2023-03-21T10:23:21;14.50;84.90
8226;DHT22;4154;48.810;9.012;2023-03-21T10:25:54;14.60;83.20
8226;DHT22;4154;48.810;9.012;2023-03-21T10:28:27;14.60;77.70
8226;DHT22;4154;48.810;9.012;2023-03-21T10:31:02;14.50;79.00
8226;DHT22;4154;48.810;9.012;2023-03-21T10:33:34;14.60;81.20
8226;DHT22;4154;48.810;9.012;2023-03-21T10:36:07;14.70;81.30
8226;DHT22;4154;48.810;9.012;2023-03-21T10:38:39;14.80;80.00
8226;DHT22;4154;48.810;9.012;2023-03-21T10:41:10;14.80;80.50
8226;DHT22;4154;48.810;9.012;2023-03-21T10:43:38;14.80;79.20
8226;DHT22;4154;48.810;9.012;2023-03-21T10:46:15;15.00;78.80
8226;DHT22;4154;48.810;9.012;2023-03-21T10:48:50;14.90;78.80
8226;DHT22;4154;48.810;9.012;2023-03-21T10:51:21;15.00;81.10
8226;DHT22;4154;48.810;9.012;2023-03-21T10:54:13;14.90;77.70
8226;DHT22;4154;48.810;9.012;2023-03-21T10:59:44;15.10;77.70
8226;DHT22;4154;48.810;9.012;2023-03-21T11:02:23;15.20;74.70
8226;DHT22;4154;48.810;9.012;2023-03-21T11:04:53;15.20;76.70
8226;DHT22;4154;48.810;9.012;2023-03-21T11:07:21;15.20;77.50
8226;DHT22;4154;48.810;9.012;2023-03-21T11:09:56;15.30;76.40
8226;DHT22;4154;48.810;9.012;2023-03-21T11:12:36;15.30;77.90
8226;DHT22;4154;48.810;9.012;2023-03-21T11:18:14;15.40;77.10
8226;DHT22;4154;48.810;9.012;2023-03-21T11:20:51;15.40;78.70
8226;DHT22;4154;48.810;9.012;2023-03-21T11:23:19;15.30;78.80
8226;DHT22;4154;48.810;9.012;2023-03-21T11:25:48;15.30;79.40
8226;DHT22;4154;48.810;9.012;2023-03-21T11:28:23;15.20;79.80
8226;DHT22;4154;48.810;9.012;2023-03-21T11:30:56;15.30;77.50
8226;DHT22;4154;48.810;9.012;2023-03-21T11:33:32;15.20;77.70
8226;DHT22;4154;48.810;9.012;2023-03-21T11:38:56;15.20;76.40
8226;DHT22;4154;48.810;9.012;2023-03-21T11:41:27;15.50;75.90
8226;DHT22;4154;48.810;9.012;2023-03-21T11:43:55;15.30;76.30
8226;DHT22;4154;48.810;9.012;2023-03-21T11:46:26;15.30;76.20
8226;DHT22;4154;48.810;9.012;2023-03-21T11:48:54;15.30;76.30
8226;DHT22;4154;48.810;9.012;2023-03-21T11:57:07;15.20;78.70
8226;DHT22;4154;48.810;9.012;2023-03-21T12:05:50;15.20;79.80
8226;DHT22;4154;48.810;9.012;2023-03-21T12:14:24;15.30;80.60
8226;DHT22;4154;48.810;9.012;2023-03-21T12:17:04;15.30;80.80
8226;DHT22;4154;48.810;9.012;2023-03-21T12:23:02;15.30;81.50
8226;DHT22;4154;48.810;9.012;2023-03-21T12:41:07;15.70;80.30
8226;DHT22;4154;48.810;9.012;2023-03-21T12:46:36;15.80;81.40
8226;DHT22;4154;48.810;9.012;2023-03-21T12:49:17;15.80;80.20
8226;DHT22;4154;48.810;9.012;2023-03-21T12:51:54;15.90;80.70
8226;DHT22;4154;48.810;9.012;2023-03-21T12:57:24;16.10;81.40
8226;DHT22;4154;48.810;9.012;2023-03-21T13:00:15;16.10;81.00
8226;DHT22;4154;48.810;9.012;2023-03-21T13:05:33;16.00;79.80
8226;DHT22;4154;48.810;9.012;2023-03-21T13:11:02;16.20;81.80
8226;DHT22;4154;48.810;9.012;2023-03-21T13:13:38;16.60;81.70
8226;DHT22;4154;48.810;9.012;2023-03-21T13:16:19;16.30;80.70
8226;DHT22;4154;48.810;9.012;2023-03-21T13:22:09;16.30;80.50
8226;DHT22;4154;48.810;9.012;2023-03-21T13:24:58;16.30;80.30
8226;DHT22;4154;48.810;9.012;2023-03-21T13:27:31;16.40;79.90
8226;DHT22;4154;48.810;9.012;2023-03-21T13:30:17;16.40;81.20
8226;DHT22;4154;48.810;9.012;2023-03-21T13:32:48;16.30;81.50
8226;DHT22;4154;48.810;9.012;2023-03-21T13:35:31;16.20;78.90
8226;DHT22;4154;48.810;9.012;2023-03-21T13:38:25;16.20;79.90
8226;DHT22;4154;48.810;9.012;2023-03-21T13:41:13;16.30;80.50
8226;DHT22;4154;48.810;9.012;2023-03-21T13:56:28;16.20;83.90
8226;DHT22;4154;48.810;9.012;2023-03-21T13:59:09;16.20;84.60
8226;DHT22;4154;48.810;9.012;2023-03-21T14:01:40;16.10;84.40
8226;DHT22;4154;48.810;9.012;2023-03-21T14:04:25;16.20;84.70
8226;DHT22;4154;48.810;9.012;2023-03-21T14:06:56;16.10;84.80
8226;DHT22;4154;48.810;9.012;2023-03-21T14:09:45;16.10;84.50
8226;DHT22;4154;48.810;9.012;2023-03-21T14:12:16;16.00;86.10
8226;DHT22;4154;48.810;9.012;2023-03-21T14:14:51;16.00;84.50
8226;DHT22;4154;48.810;9.012;2023-03-21T14:17:28;16.00;83.80
8226;DHT22;4154;48.810;9.012;2023-03-21T14:22:26;16.00;85.20
8226;DHT22;4154;48.810;9.012;2023-03-21T14:24:59;16.10;85.70
8226;DHT22;4154;48.810;9.012;2023-03-21T14:27:32;16.20;85.10
8226;DHT22;4154;48.810;9.012;2023-03-21T14:30:00;16.10;85.10
8226;DHT22;4154;48.810;9.012;2023-03-21T14:32:29;16.10;85.90
8226;DHT22;4154;48.810;9.012;2023-03-21T14:34:56;16.10;84.80
8226;DHT22;4154;48.810;9.012;2023-03-21T14:37:36;16.20;85.70
8226;DHT22;4154;48.810;9.012;2023-03-21T14:40:20;16.20;84.70
8226;DHT22;4154;48.810;9.012;2023-03-21T14:42:49;16.10;84.80
8226;DHT22;4154;48.810;9.012;2023-03-21T14:45:27;16.20;84.40
8226;DHT22;4154;48.810;9.012;2023-03-21T14:48:06;16.10;84.80
8226;DHT22;4154;48.810;9.012;2023-03-21T14:50:41;16.00;85.40
8226;DHT22;4154;48.810;9.012;2023-03-21T14:53:30;16.00;85.30
8226;DHT22;4154;48.810;9.012;2023-03-21T14:56:06;16.00;85.00
8226;DHT22;4154;48.810;9.012;2023-03-21T14:58:39;16.00;85.20
8226;DHT22;4154;48.810;9.012;2023-03-21T15:01:14;15.90;85.20
8226;DHT22;4154;48.810;9.012;2023-03-21T15:03:45;15.90;85.90
8226;DHT22;4154;48.810;9.012;2023-03-21T15:06:12;15.80;87.00
8226;DHT22;4154;48.810;9.012;2023-03-21T15:08:39;15.90;86.20
8226;DHT22;4154;48.810;9.012;2023-03-21T15:11:07;15.80;85.30
8226;DHT22;4154;48.810;9.012;2023-03-21T15:13:48;15.90;85.80
8226;DHT22;4154;48.810;9.012;2023-03-21T15:16:19;15.90;85.40
8226;DHT22;4154;48.810;9.012;2023-03-21T15:18:45;16.00;85.30
8226;DHT22;4154;48.810;9.012;2023-03-21T15:21:24;16.00;85.80
8226;DHT22;4154;48.810;9.012;2023-03-21T15:24:00;16.00;85.40
8226;DHT22;4154;48.810;9.012;2023-03-21T15:26:39;16.00;86.20
8226;DHT22;4154;48.810;9.012;2023-03-21T15:29:09;15.90;86.10
8226;DHT22;4154;48.810;9.012;2023-03-21T15:31:38;15.90;85.70
8226;DHT22;4154;48.810;9.012;2023-03-21T15:34:05;15.90;86.00
8226;DHT22;4154;48.810;9.012;2023-03-21T15:36:40;15.90;85.60
8226;DHT22;4154;48.810;9.012;2023-03-21T15:39:13;15.80;85.50
8226;DHT22;4154;48.810;9.012;2023-03-21T15:41:54;15.80;86.50
8226;DHT22;4154;48.810;9.012;2023-03-21T15:44:22;15.40;93.10
8226;DHT22;4154;48.810;9.012;2023-03-21T15:46:50;15.60;86.10
8226;DHT22;4154;48.810;9.012;2023-03-21T15:49:31;15.60;86.60
8226;DHT22;4154;48.810;9.012;2023-03-21T15:52:16;15.50;87.10
8226;DHT22;4154;48.810;9.012;2023-03-21T15:54:47;15.40;87.60
8226;DHT22;4154;48.810;9.012;2023-03-21T15:57:25;15.40;87.70
8226;DHT22;4154;48.810;9.012;2023-03-21T16:00:19;15.30;87.10
8226;DHT22;4154;48.810;9.012;2023-03-21T16:02:52;15.30;87.80
8226;DHT22;4154;48.810;9.012;2023-03-21T16:05:29;15.30;87.90
8226;DHT22;4154;48.810;9.012;2023-03-21T16:08:04;15.30;88.10
8226;DHT22;4154;48.810;9.012;2023-03-21T16:10:41;15.30;88.40
8226;DHT22;4154;48.810;9.012;2023-03-21T16:13:10;15.20;88.70
8226;DHT22;4154;48.810;9.012;2023-03-21T16:15:40;15.20;89.10
8226;DHT22;4154;48.810;9.012;2023-03-21T16:18:06;15.20;88.80
8226;DHT22;4154;48.810;9.012;2023-03-21T16:20:39;15.20;88.70
8226;DHT22;4154;48.810;9.012;2023-03-21T16:23:12;15.10;88.40
8226;DHT22;4154;48.810;9.012;2023-03-21T16:25:40;15.10;88.50
8226;DHT22;4154;48.810;9.012;2023-03-21T16:28:13;15.30;94.90
8226;DHT22;4154;48.810;9.012;2023-03-21T16:30:40;15.00;88.90
8226;DHT22;4154;48.810;9.012;2023-03-21T16:33:10;14.70;94.70
8226;DHT22;4154;48.810;9.012;2023-03-21T16:35:38;14.80;89.60
8226;DHT22;4154;48.810;9.012;2023-03-21T16:38:05;14.60;94.90
8226;DHT22;4154;48.810;9.012;2023-03-21T16:40:33;14.70;89.50
8226;DHT22;4154;48.810;9.012;2023-03-21T16:43:01;14.70;94.80
8226;DHT22;4154;48.810;9.012;2023-03-21T16:45:26;14.70;90.10
8226;DHT22;4154;48.810;9.012;2023-03-21T16:47:55;15.00;90.30
8226;DHT22;4154;48.810;9.012;2023-03-21T16:50:25;14.60;90.30
8226;DHT22;4154;48.810;9.012;2023-03-21T16:52:57;14.60;90.40
8226;DHT22;4154;48.810;9.012;2023-03-21T16:55:24;14.70;95.40
8226;DHT22;4154;48.810;9.012;2023-03-21T16:57:52;14.80;95.40
8226;DHT22;4154;48.810;9.012;2023-03-21T17:00:23;14.80;95.50
8226;DHT22;4154;48.810;9.012;2023-03-21T17:02:54;14.50;90.40
8226;DHT22;4154;48.810;9.012;2023-03-21T17:05:22;14.50;90.60
8226;DHT22;4154;48.810;9.012;2023-03-21T17:07:51;14.40;90.50
8226;DHT22;4154;48.810;9.012;2023-03-21T17:10:23;14.40;93.00
8226;DHT22;4154;48.810;9.012;2023-03-21T17:12:51;14.30;91.00
8226;DHT22;4154;48.810;9.012;2023-03-21T17:15:18;14.40;90.60
8226;DHT22;4154;48.810;9.012;2023-03-21T17:17:45;14.30;90.70
8226;DHT22;4154;48.810;9.012;2023-03-21T17:20:20;14.30;90.70
8226;DHT22;4154;48.810;9.012;2023-03-21T17:22:50;14.20;90.90
8226;DHT22;4154;48.810;9.012;2023-03-21T17:25:17;14.20;91.20
8226;DHT22;4154;48.810;9.012;2023-03-21T17:27:44;14.20;91.40
8226;DHT22;4154;48.810;9.012;2023-03-21T17:30:32;14.00;96.70
8226;DHT22;4154;48.810;9.012;2023-03-21T17:33:00;14.30;96.90
8226;DHT22;4154;48.810;9.012;2023-03-21T17:35:27;14.10;91.80
8226;DHT22;4154;48.810;9.012;2023-03-21T17:37:53;14.10;91.90
8226;DHT22;4154;48.810;9.012;2023-03-21T17:40:28;14.10;92.10
8226;DHT22;4154;48.810;9.012;2023-03-21T17:42:57;14.10;92.20
8226;DHT22;4154;48.810;9.012;2023-03-21T17:45:25;14.00;92.20
8226;DHT22;4154;48.810;9.012;2023-03-21T17:47:51;13.90;92.40
8226;DHT22;4154;48.810;9.012;2023-03-21T17:50:22;13.90;92.40
8226;DHT22;4154;48.810;9.012;2023-03-21T17:52:50;13.90;92.60
8226;DHT22;4154;48.810;9.012;2023-03-21T17:55:18;13.90;92.70
8226;DHT22;4154;48.810;9.012;2023-03-21T17:57:46;13.80;92.80
8226;DHT22;4154;48.810;9.012;2023-03-21T18:00:19;13.80;92.90
8226;DHT22;4154;48.810;9.012;2023-03-21T18:02:48;13.80;93.40
8226;DHT22;4154;48.810;9.012;2023-03-21T18:05:14;13.80;93.20
8226;DHT22;4154;48.810;9.012;2023-03-21T18:07:41;13.70;93.20
8226;DHT22;4154;48.810;9.012;2023-03-21T18:10:14;13.60;93.20
8226;DHT22;4154;48.810;9.012;2023-03-21T18:12:43;13.60;93.70
8226;DHT22;4154;48.810;9.012;2023-03-21T18:15:12;13.60;94.20
8226;DHT22;4154;48.810;9.012;2023-03-21T18:17:38;13.60;94.40
8226;DHT22;4154;48.810;9.012;2023-03-21T18:20:10;13.60;94.70
8226;DHT22;4154;48.810;9.012;2023-03-21T18:22:37;13.50;94.70
8226;DHT22;4154;48.810;9.012;2023-03-21T18:25:04;13.50;94.90
8226;DHT22;4154;48.810;9.012;2023-03-21T18:27:31;13.50;94.70
8226;DHT22;4154;48.810;9.012;2023-03-21T18:29:57;13.50;94.90
8226;DHT22;4154;48.810;9.012;2023-03-21T18:32:25;13.50;95.10
8226;DHT22;4154;48.810;9.012;2023-03-21T18:34:51;13.50;95.10
8226;DHT22;4154;48.810;9.012;2023-03-21T18:37:17;13.50;94.80
8226;DHT22;4154;48.810;9.012;2023-03-21T18:39:43;13.50;94.90
8226;DHT22;4154;48.810;9.012;2023-03-21T18:42:12;13.50;95.00
8226;DHT22;4154;48.810;9.012;2023-03-21T18:44:38;13.40;94.90
8226;DHT22;4154;48.810;9.012;2023-03-21T18:47:09;13.40;99.90
8226;DHT22;4154;48.810;9.012;2023-03-21T18:49:35;13.50;94.70
8226;DHT22;4154;48.810;9.012;2023-03-21T18:52:03;13.40;94.40
8226;DHT22;4154;48.810;9.012;2023-03-21T18:54:31;13.40;94.30
8226;DHT22;4154;48.810;9.012;2023-03-21T18:56:58;13.30;99.40
8226;DHT22;4154;48.810;9.012;2023-03-21T18:59:24;13.40;94.20
8226;DHT22;4154;48.810;9.012;2023-03-21T19:01:50;13.40;94.20
8226;DHT22;4154;48.810;9.012;2023-03-21T19:04:16;13.40;94.40
8226;DHT22;4154;48.810;9.012;2023-03-21T19:06:46;13.40;94.50
8226;DHT22;4154;48.810;9.012;2023-03-21T19:09:13;13.30;94.80
8226;DHT22;4154;48.810;9.012;2023-03-21T19:11:39;13.30;94.70
8226;DHT22;4154;48.810;9.012;2023-03-21T19:14:09;13.30;94.60
8226;DHT22;4154;48.810;9.012;2023-03-21T19:16:40;13.30;94.80
8226;DHT22;4154;48.810;9.012;2023-03-21T19:19:07;13.30;94.50
8226;DHT22;4154;48.810;9.012;2023-03-21T19:21:33;13.30;94.60
8226;DHT22;4154;48.810;9.012;2023-03-21T19:23:59;13.20;94.40
8226;DHT22;4154;48.810;9.012;2023-03-21T19:26:26;13.20;94.30
8226;DHT22;4154;48.810;9.012;2023-03-21T19:28:52;13.20;94.40
8226;DHT22;4154;48.810;9.012;2023-03-21T19:31:20;13.10;94.70
8226;DHT22;4154;48.810;9.012;2023-03-21T19:33:48;13.10;94.80
8226;DHT22;4154;48.810;9.012;2023-03-21T19:36:15;13.10;94.90
8226;DHT22;4154;48.810;9.012;2023-03-21T19:38:41;13.00;94.90
8226;DHT22;4154;48.810;9.012;2023-03-21T19:41:07;13.00;94.90
8226;DHT22;4154;48.810;9.012;2023-03-21T19:43:33;13.00;95.00